createdAt,value
2019-03-26T00:00:58.392Z,1012.00
2019-03-26T00:01:58.391Z,1011.94
2019-03-26T00:02:58.358Z,1012.00
2019-03-26T00:04:05.891Z,1011.96
2019-03-26T00:04:59.342Z,1011.96
2019-03-26T00:05:58.333Z,1012.03
2019-03-26T00:06:58.320Z,1012.02
2019-03-26T00:07:58.326Z,1012.02
2019-03-26T00:08:58.298Z,1011.99
2019-03-26T00:09:58.289Z,1011.99
2019-03-26T00:10:58.282Z,1012.02
2019-03-26T00:11:58.273Z,1012.08
2019-03-26T00:12:58.264Z,1012.08
2019-03-26T00:14:05.795Z,1012.04
2019-03-26T00:15:05.301Z,1012.04
2019-03-26T00:16:05.763Z,1012.08
2019-03-26T00:17:06.265Z,1012.05
2019-03-26T00:18:05.271Z,1012.09
2019-03-26T00:19:05.736Z,1012.12
2019-03-26T00:20:05.712Z,1012.06
2019-03-26T00:20:58.171Z,1012.12
2019-03-26T00:21:58.165Z,1012.11
2019-03-26T00:22:58.157Z,1012.09
2019-03-26T00:23:58.154Z,1012.01
2019-03-26T00:24:58.128Z,1012.09
2019-03-26T00:25:58.118Z,1012.08
2019-03-26T00:26:58.109Z,1012.08
2019-03-26T00:27:58.112Z,1012.04
2019-03-26T00:28:58.114Z,1012.10
2019-03-26T00:29:58.085Z,1012.15
2019-03-26T05:00:45.284Z,1012.68
2019-03-26T05:01:45.251Z,1012.70
2019-03-26T05:02:45.240Z,1012.78
2019-03-26T05:03:45.231Z,1012.81
2019-03-26T05:04:45.223Z,1012.81
2019-03-26T05:05:45.219Z,1012.75
2019-03-26T05:06:45.248Z,1012.72
2019-03-26T05:07:45.189Z,1012.69
2019-03-26T05:08:45.180Z,1012.77
2019-03-26T05:09:52.723Z,1012.73
2019-03-26T05:10:52.690Z,1012.80
2019-03-26T05:11:52.751Z,1012.67
2019-03-26T05:12:45.145Z,1012.67
2019-03-26T05:13:45.131Z,1012.62
2019-03-26T05:14:45.118Z,1012.64
2019-03-26T05:15:45.107Z,1012.67
2019-03-26T05:16:45.116Z,1012.70
2019-03-26T05:17:45.109Z,1012.68
2019-03-26T05:18:45.075Z,1012.69
2019-03-26T05:19:45.076Z,1012.66
2019-03-26T05:20:45.054Z,1012.70
2019-03-26T05:21:45.054Z,1012.67
2019-03-26T05:22:45.056Z,1012.63
2019-03-26T05:23:45.047Z,1012.65
2019-03-26T05:24:45.018Z,1012.58
2019-03-26T05:25:45.007Z,1012.60
2019-03-26T05:26:44.994Z,1012.68
2019-03-26T05:27:45.881Z,1012.60
2019-03-26T05:28:44.973Z,1012.64
2019-03-26T05:29:44.980Z,1012.64
2019-03-26T05:30:45.671Z,1012.68
2019-03-26T05:31:45.220Z,1012.65
2019-03-26T05:32:44.926Z,1012.64
2019-03-26T05:33:44.938Z,1012.58
2019-03-26T05:34:44.908Z,1012.63
2019-03-26T05:35:44.901Z,1012.65
2019-03-26T05:36:51.163Z,1012.61
2019-03-26T05:37:46.652Z,1012.68
2019-03-26T05:38:44.865Z,1012.64
2019-03-26T05:39:44.868Z,1012.59
2019-03-26T05:40:44.839Z,1012.63
2019-03-26T05:41:44.845Z,1012.64
2019-03-26T05:42:44.915Z,1012.61
2019-03-26T05:43:45.136Z,1012.56
2019-03-26T05:44:45.475Z,1012.62
2019-03-26T05:45:44.793Z,1012.66
2019-03-26T05:46:44.780Z,1012.58
2019-03-26T05:47:44.765Z,1012.65
2019-03-26T05:48:44.760Z,1012.70
2019-03-26T05:49:44.767Z,1012.75
2019-03-26T05:50:44.739Z,1012.77
2019-03-26T05:51:44.723Z,1012.67
2019-03-26T05:52:44.731Z,1012.74
2019-03-26T05:53:44.719Z,1012.76
2019-03-26T05:54:44.713Z,1012.75
2019-03-26T05:55:45.192Z,1012.78
2019-03-26T05:56:44.680Z,1012.84
2019-03-26T05:57:44.785Z,1012.87
2019-03-26T05:58:44.668Z,1012.77
2019-03-26T05:59:44.653Z,1012.83
2019-03-26T06:00:44.647Z,1012.85
2019-03-26T06:01:44.616Z,1012.80
2019-03-26T06:02:44.636Z,1012.86
2019-03-26T06:03:44.641Z,1012.82
2019-03-26T06:04:45.139Z,1012.79
2019-03-26T06:05:44.574Z,1012.85
2019-03-26T06:06:45.141Z,1012.80
2019-03-26T06:07:44.560Z,1012.85
2019-03-26T06:08:45.961Z,1012.88
2019-03-26T06:09:45.439Z,1012.83
2019-03-26T06:10:45.151Z,1012.84
2019-03-26T06:11:44.520Z,1012.78
2019-03-26T06:12:53.353Z,1012.86
2019-03-26T06:13:45.855Z,1012.81
2019-03-26T06:14:44.497Z,1012.87
2019-03-26T06:15:45.180Z,1012.85
2019-03-26T06:16:44.468Z,1012.88
2019-03-26T06:17:44.572Z,1012.87
2019-03-26T06:18:44.446Z,1012.89
2019-03-26T06:19:44.441Z,1012.84
2019-03-26T06:20:44.530Z,1012.89
2019-03-26T06:21:44.465Z,1012.89
2019-03-26T06:22:44.395Z,1012.96
2019-03-26T06:23:44.429Z,1012.99
2019-03-26T06:24:44.386Z,1012.97
2019-03-26T06:25:44.603Z,1012.93
2019-03-26T06:26:44.495Z,1012.94
2019-03-26T06:27:44.376Z,1012.87
2019-03-26T06:28:44.350Z,1012.91
2019-03-26T06:29:44.404Z,1012.96
2019-03-26T06:30:44.327Z,1012.85
2019-03-26T06:31:44.292Z,1013.03
2019-03-26T06:32:44.357Z,1012.95
2019-03-26T06:34:45.281Z,1012.90
2019-03-26T06:35:50.696Z,1012.94
2019-03-26T06:36:45.246Z,1012.95
2019-03-26T06:37:44.242Z,1012.92
2019-03-26T06:38:59.290Z,1013.03
2019-03-26T06:44:56.068Z,1013.08
2019-03-26T06:59:15.612Z,1013.28
2019-03-26T07:00:15.592Z,1013.29
2019-03-26T07:01:15.577Z,1013.25
2019-03-26T07:02:15.569Z,1013.28
2019-03-26T07:03:15.581Z,1013.29
2019-03-26T07:04:15.549Z,1013.26
2019-03-26T07:05:15.537Z,1013.28
2019-03-26T07:06:15.529Z,1013.37
2019-03-26T07:07:15.531Z,1013.43
2019-03-26T07:08:15.532Z,1013.37
2019-03-26T07:09:15.492Z,1013.36
2019-03-26T07:10:15.498Z,1013.44
2019-03-26T07:11:15.487Z,1013.35
2019-03-26T07:12:15.473Z,1013.34
2019-03-26T07:13:15.470Z,1013.35
2019-03-26T07:14:15.434Z,1013.43
2019-03-26T07:15:15.424Z,1013.43
2019-03-26T07:16:15.415Z,1013.51
2019-03-26T07:17:15.423Z,1013.39
2019-03-26T07:18:15.394Z,1013.44
2019-03-26T07:19:15.400Z,1013.47
2019-03-26T07:20:15.372Z,1013.42
2019-03-26T07:21:15.361Z,1013.40
2019-03-26T07:22:15.355Z,1013.45
2019-03-26T07:23:15.356Z,1013.46
2019-03-26T07:24:15.349Z,1013.43
2019-03-26T07:25:15.317Z,1013.40
2019-03-26T07:26:22.837Z,1013.49
2019-03-26T07:27:22.835Z,1013.47
2019-03-26T07:28:22.897Z,1013.39
2019-03-26T07:29:22.846Z,1013.46
2019-03-26T07:30:22.810Z,1013.51
2019-03-26T07:31:15.251Z,1013.52
2019-03-26T07:32:15.246Z,1013.47
2019-03-26T07:33:15.230Z,1013.45
2019-03-26T07:34:15.221Z,1013.52
2019-03-26T07:35:15.224Z,1013.55
2019-03-26T07:36:15.202Z,1013.52
2019-03-26T07:37:15.188Z,1013.53
2019-03-26T07:38:15.177Z,1013.53
2019-03-26T07:39:15.195Z,1013.50
2019-03-26T07:40:15.156Z,1013.42
2019-03-26T07:41:15.144Z,1013.41
2019-03-26T07:42:15.142Z,1013.45
2019-03-26T07:43:15.125Z,1013.40
2019-03-26T07:44:15.105Z,1013.45
2019-03-26T07:45:15.132Z,1013.44
2019-03-26T07:46:15.108Z,1013.38
2019-03-26T07:47:15.095Z,1013.42
2019-03-26T07:48:15.064Z,1013.41
2019-03-26T07:49:15.052Z,1013.39
2019-03-26T07:50:15.058Z,1013.37
2019-03-26T08:09:31.833Z,1013.54
2019-03-26T08:16:49.277Z,1013.61
2019-03-26T08:17:49.222Z,1013.59
2019-03-26T08:18:49.210Z,1013.59
2019-03-26T08:19:49.206Z,1013.61
2019-03-26T08:20:49.187Z,1013.63
2019-03-26T08:21:49.179Z,1013.64
2019-03-26T08:22:49.186Z,1013.64
2019-03-26T08:23:49.159Z,1013.62
2019-03-26T08:24:49.159Z,1013.55
2019-03-26T08:25:49.154Z,1013.59
2019-03-26T08:26:51.921Z,1013.61
2019-03-26T08:27:49.122Z,1013.60
2019-03-26T08:28:49.101Z,1013.58
2019-03-26T08:29:49.107Z,1013.59
2019-03-26T08:30:50.310Z,1013.63
2019-03-26T08:31:49.078Z,1013.60
2019-03-26T08:32:49.077Z,1013.63
2019-03-26T08:33:49.048Z,1013.59
2019-03-26T08:34:49.042Z,1013.68
2019-03-26T08:35:49.035Z,1013.57
2019-03-26T08:36:49.021Z,1013.56
2019-03-26T08:37:49.029Z,1013.56
2019-03-26T08:38:48.993Z,1013.56
2019-03-26T08:39:48.986Z,1013.63
2019-03-26T08:40:48.976Z,1013.63
2019-03-26T08:41:48.964Z,1013.58
2019-03-26T08:42:48.960Z,1013.56
2019-03-26T08:43:48.966Z,1013.56
2019-03-26T08:44:48.934Z,1013.62
2019-03-26T08:45:48.929Z,1013.59
2019-03-26T08:46:48.914Z,1013.55
2019-03-26T08:47:48.901Z,1013.54
2019-03-26T08:48:48.906Z,1013.56
2019-03-26T08:49:48.904Z,1013.60
2019-03-26T08:50:48.866Z,1013.54
2019-03-26T08:51:48.869Z,1013.61
2019-03-26T08:52:48.847Z,1013.60
2019-03-26T08:53:48.835Z,1013.71
2019-03-26T08:54:48.891Z,1013.63
2019-03-26T08:55:48.815Z,1013.66
2019-03-26T08:56:48.805Z,1013.62
2019-03-26T08:57:48.804Z,1013.71
2019-03-26T08:58:48.781Z,1013.68
2019-03-26T08:59:48.786Z,1013.70
2019-03-26T09:00:48.767Z,1013.76
2019-03-26T09:01:48.764Z,1013.69
2019-03-26T09:02:48.752Z,1013.71
2019-03-26T09:03:48.731Z,1013.77
2019-03-26T09:04:48.721Z,1013.77
2019-03-26T09:05:48.710Z,1013.75
2019-03-26T09:06:48.737Z,1013.79
2019-03-26T09:07:48.706Z,1013.76
2019-03-26T09:08:48.682Z,1013.77
2019-03-26T09:09:48.671Z,1013.74
2019-03-26T09:10:51.908Z,1013.78
2019-03-26T09:11:48.666Z,1013.79
2019-03-26T09:12:48.637Z,1013.78
2019-03-26T09:13:48.625Z,1013.67
2019-03-26T09:14:48.622Z,1013.74
2019-03-26T09:15:48.612Z,1013.75
2019-03-26T09:16:48.594Z,1013.81
2019-03-26T09:17:48.605Z,1013.72
2019-03-26T09:18:48.572Z,1013.74
2019-03-26T09:19:48.559Z,1013.81
2019-03-26T09:20:48.555Z,1013.72
2019-03-26T09:21:48.539Z,1013.79
2019-03-26T09:22:48.526Z,1013.82
2019-03-26T09:23:48.529Z,1013.75
2019-03-26T09:24:48.504Z,1013.78
2019-03-26T09:25:48.493Z,1013.68
2019-03-26T09:26:48.500Z,1013.70
2019-03-26T09:27:48.498Z,1013.70
2019-03-26T09:28:48.464Z,1013.75
2019-03-26T09:29:48.454Z,1013.87
2019-03-26T09:30:48.440Z,1013.64
2019-03-26T09:31:48.429Z,1013.70
2019-03-26T09:32:48.420Z,1013.70
2019-03-26T09:33:48.431Z,1013.80
2019-03-26T09:34:48.406Z,1013.76
2019-03-26T09:35:48.388Z,1013.63
2019-03-26T09:36:48.378Z,1013.73
2019-03-26T09:37:48.371Z,1013.69
2019-03-26T09:38:48.374Z,1013.69
2019-03-26T09:39:48.352Z,1013.63
2019-03-26T09:40:48.333Z,1013.50
2019-03-26T09:41:48.335Z,1013.49
2019-03-26T09:42:48.307Z,1013.53
2019-03-26T09:43:48.322Z,1013.53
2019-03-26T09:44:48.287Z,1013.56
2019-03-26T09:45:48.278Z,1013.55
2019-03-26T09:46:55.802Z,1013.57
2019-03-26T09:47:55.794Z,1013.64
2019-03-26T09:48:55.791Z,1013.56
2019-03-26T09:49:55.781Z,1013.57
2019-03-26T09:50:55.757Z,1013.61
2019-03-26T09:51:48.218Z,1013.56
2019-03-26T09:52:48.199Z,1013.55
2019-03-26T09:53:48.189Z,1013.51
2019-03-26T09:54:48.196Z,1013.58
2019-03-26T09:55:48.189Z,1013.59
2019-03-26T09:56:48.165Z,1013.57
2019-03-26T09:57:48.151Z,1013.47
2019-03-26T09:58:48.142Z,1013.55
2019-03-26T09:59:48.126Z,1013.55
2019-03-26T10:00:48.275Z,1013.52
2019-03-26T10:01:48.128Z,1013.53
2019-03-26T10:02:48.099Z,1013.47
2019-03-26T10:03:48.089Z,1013.46
2019-03-26T10:04:48.089Z,1013.55
2019-03-26T10:05:48.060Z,1013.51
2019-03-26T10:06:48.050Z,1013.55
2019-03-26T10:07:48.041Z,1013.56
2019-03-26T10:08:52.636Z,1013.57
2019-03-26T10:09:48.017Z,1013.64
2019-03-26T10:10:48.029Z,1013.61
2019-03-26T10:11:48.001Z,1013.64
2019-03-26T10:12:47.988Z,1013.61
2019-03-26T10:13:47.979Z,1013.62
2019-03-26T10:14:47.964Z,1013.54
2019-03-26T10:15:47.975Z,1013.59
2019-03-26T10:16:47.940Z,1013.64
2019-03-26T10:17:47.935Z,1013.65
2019-03-26T10:18:47.920Z,1013.70
2019-03-26T10:19:47.935Z,1013.66
2019-03-26T10:20:47.927Z,1013.62
2019-03-26T10:21:47.902Z,1013.51
2019-03-26T10:22:47.879Z,1013.51
2019-03-26T10:23:47.871Z,1013.50
2019-03-26T10:24:47.850Z,1013.45
2019-03-26T10:25:47.844Z,1013.48
2019-03-26T10:26:47.851Z,1013.45
2019-03-26T10:27:47.822Z,1013.44
2019-03-26T10:28:47.819Z,1013.43
2019-03-26T10:29:47.822Z,1013.48
2019-03-26T10:30:47.790Z,1013.48
2019-03-26T10:31:47.774Z,1013.49
2019-03-26T10:32:47.770Z,1013.45
2019-03-26T10:33:47.761Z,1013.50
2019-03-26T10:34:47.749Z,1013.49
2019-03-26T10:35:47.763Z,1013.45
2019-03-26T10:36:47.723Z,1013.47
2019-03-26T10:37:47.712Z,1013.44
2019-03-26T10:38:47.701Z,1013.46
2019-03-26T10:39:47.689Z,1013.47
2019-03-26T10:40:47.699Z,1013.53
2019-03-26T10:41:47.673Z,1013.48
2019-03-26T10:42:47.672Z,1013.54
2019-03-26T10:43:47.657Z,1013.54
2019-03-26T10:44:47.640Z,1013.52
2019-03-26T10:45:47.649Z,1013.47
2019-03-26T10:46:47.632Z,1013.55
2019-03-26T10:47:47.608Z,1013.56
2019-03-26T10:48:47.592Z,1013.55
2019-03-26T10:49:47.587Z,1013.55
2019-03-26T10:50:47.603Z,1013.59
2019-03-26T10:51:47.560Z,1013.55
2019-03-26T10:52:47.557Z,1013.48
2019-03-26T10:53:47.545Z,1013.57
2019-03-26T10:54:47.539Z,1013.49
2019-03-26T10:55:47.524Z,1013.49
2019-03-26T10:56:47.533Z,1013.51
2019-03-26T10:57:47.498Z,1013.52
2019-03-26T10:58:47.488Z,1013.54
2019-03-26T10:59:47.477Z,1013.54
2019-03-26T11:00:47.483Z,1013.54
2019-03-26T11:01:47.459Z,1013.51
2019-03-26T11:02:47.508Z,1013.50
2019-03-26T11:03:47.437Z,1013.53
2019-03-26T11:04:47.429Z,1013.46
2019-03-26T11:05:47.444Z,1013.47
2019-03-26T11:06:47.410Z,1013.52
2019-03-26T11:07:47.420Z,1013.52
2019-03-26T11:08:47.410Z,1013.47
2019-03-26T11:09:47.368Z,1013.52
2019-03-26T11:10:47.365Z,1013.56
2019-03-26T11:11:47.346Z,1013.50
2019-03-26T11:12:47.347Z,1013.52
2019-03-26T11:13:47.344Z,1013.52
2019-03-26T11:14:47.322Z,1013.53
2019-03-26T11:15:47.310Z,1013.51
2019-03-26T11:16:47.308Z,1013.47
2019-03-26T11:17:47.309Z,1013.52
2019-03-26T11:18:47.277Z,1013.50
2019-03-26T11:19:47.266Z,1013.48
2019-03-26T11:20:47.250Z,1013.55
2019-03-26T11:21:47.242Z,1013.56
2019-03-26T11:22:47.247Z,1013.57
2019-03-26T11:23:47.236Z,1013.54
2019-03-26T11:24:47.217Z,1013.55
2019-03-26T11:25:47.200Z,1013.54
2019-03-26T11:26:47.188Z,1013.58
2019-03-26T11:27:47.181Z,1013.46
2019-03-26T11:28:47.167Z,1013.56
2019-03-26T11:29:47.170Z,1013.45
2019-03-26T11:30:47.150Z,1013.53
2019-03-26T11:31:47.132Z,1013.48
2019-03-26T11:32:47.127Z,1013.55
2019-03-26T11:33:47.132Z,1013.60
2019-03-26T11:34:47.118Z,1013.53
2019-03-26T11:35:47.105Z,1013.49
2019-03-26T11:36:47.090Z,1013.54
2019-03-26T11:37:47.075Z,1013.56
2019-03-26T11:38:47.060Z,1013.48
2019-03-26T11:39:47.076Z,1013.47
2019-03-26T11:40:47.039Z,1013.38
2019-03-26T11:41:47.030Z,1013.39
2019-03-26T11:42:47.068Z,1013.38
2019-03-26T11:43:47.005Z,1013.36
2019-03-26T11:44:47.006Z,1013.38
2019-03-26T11:45:47.014Z,1013.40
2019-03-26T11:46:46.981Z,1013.37
2019-03-26T11:47:46.971Z,1013.42
2019-03-26T11:48:46.948Z,1013.31
2019-03-26T11:49:46.947Z,1013.34
2019-03-26T11:50:46.949Z,1013.41
2019-03-26T11:51:46.925Z,1013.36
2019-03-26T11:52:46.913Z,1013.34
2019-03-26T11:53:46.895Z,1013.38
2019-03-26T11:54:46.889Z,1013.37
2019-03-26T11:55:46.893Z,1013.38
2019-03-26T11:56:46.867Z,1013.38
2019-03-26T11:57:46.854Z,1013.31
2019-03-26T11:58:46.842Z,1013.35
2019-03-26T11:59:46.839Z,1013.29
2019-03-26T12:00:46.822Z,1013.33
2019-03-26T12:01:46.824Z,1013.30
2019-03-26T12:02:46.798Z,1013.29
2019-03-26T12:03:54.329Z,1013.22
2019-03-26T12:04:46.783Z,1013.13
2019-03-26T12:05:46.773Z,1013.16
2019-03-26T12:06:46.784Z,1013.09
2019-03-26T12:07:46.753Z,1013.04
2019-03-26T12:08:46.754Z,1013.12
2019-03-26T12:09:47.032Z,1013.15
2019-03-26T12:10:46.719Z,1013.09
2019-03-26T12:11:46.703Z,1013.09
2019-03-26T12:12:46.712Z,1013.04
2019-03-26T12:13:46.683Z,1013.09
2019-03-26T12:14:46.678Z,1013.17
2019-03-26T12:15:47.009Z,1013.09
2019-03-26T12:16:46.747Z,1013.17
2019-03-26T12:17:46.665Z,1013.15
2019-03-26T12:18:46.629Z,1013.04
2019-03-26T12:19:46.626Z,1013.06
2019-03-26T12:20:46.617Z,1013.07
2019-03-26T12:21:46.605Z,1013.03
2019-03-26T12:22:46.615Z,1013.02
2019-03-26T12:23:46.581Z,1012.99
2019-03-26T12:24:46.580Z,1013.00
2019-03-26T12:25:46.695Z,1012.96
2019-03-26T12:26:47.476Z,1012.95
2019-03-26T12:27:46.546Z,1012.93
2019-03-26T12:28:46.543Z,1012.92
2019-03-26T12:29:46.519Z,1012.94
2019-03-26T12:30:46.511Z,1012.94
2019-03-26T12:31:46.495Z,1012.86
2019-03-26T12:32:46.509Z,1012.90
2019-03-26T12:33:46.481Z,1012.85
2019-03-26T12:34:46.492Z,1012.79
2019-03-26T12:35:46.460Z,1012.84
2019-03-26T12:36:46.442Z,1012.89
2019-03-26T12:37:46.464Z,1012.84
2019-03-26T12:38:46.420Z,1012.84
2019-03-26T12:39:58.968Z,1012.81
2019-03-26T12:40:47.398Z,1012.86
2019-03-26T12:41:46.402Z,1012.89
2019-03-26T12:42:46.414Z,1012.79
2019-03-26T12:43:46.387Z,1012.80
2019-03-26T12:44:46.361Z,1012.81
2019-03-26T12:45:46.382Z,1012.87
2019-03-26T12:46:46.337Z,1012.82
2019-03-26T12:47:46.324Z,1012.88
2019-03-26T12:48:46.316Z,1012.88
2019-03-26T12:49:46.321Z,1012.82
2019-03-26T12:50:46.302Z,1012.82
2019-03-26T12:51:46.305Z,1012.86
2019-03-26T12:52:46.301Z,1012.87
2019-03-26T12:53:46.257Z,1012.84
2019-03-26T12:54:46.276Z,1012.74
2019-03-26T12:55:46.240Z,1012.88
2019-03-26T12:56:46.235Z,1012.79
2019-03-26T12:57:46.219Z,1012.86
2019-03-26T12:58:46.203Z,1012.82
2019-03-26T12:59:46.195Z,1012.83
2019-03-26T13:00:46.247Z,1012.88
2019-03-26T13:01:46.239Z,1012.73
2019-03-26T13:02:46.176Z,1012.76
2019-03-26T13:03:46.159Z,1012.76
2019-03-26T13:04:46.143Z,1012.79
2019-03-26T13:05:46.164Z,1012.77
2019-03-26T13:06:46.117Z,1012.78
2019-03-26T13:07:46.131Z,1012.74
2019-03-26T13:08:46.096Z,1012.72
2019-03-26T13:09:46.089Z,1012.78
2019-03-26T13:10:53.579Z,1012.70
2019-03-26T13:11:47.079Z,1012.71
2019-03-26T13:12:46.084Z,1012.73
2019-03-26T13:13:46.059Z,1012.76
2019-03-26T13:14:46.036Z,1012.68
2019-03-26T13:15:46.022Z,1012.70
2019-03-26T13:16:46.014Z,1012.69
2019-03-26T13:17:46.010Z,1012.68
2019-03-26T13:18:45.986Z,1012.64
2019-03-26T13:19:45.999Z,1012.71
2019-03-26T13:20:45.971Z,1012.62
2019-03-26T13:21:45.984Z,1012.68
2019-03-26T13:22:45.950Z,1012.61
2019-03-26T13:23:45.959Z,1012.66
2019-03-26T13:24:45.942Z,1012.63
2019-03-26T13:25:45.912Z,1012.59
2019-03-26T13:26:48.898Z,1012.64
2019-03-26T13:27:45.891Z,1012.62
2019-03-26T13:28:45.881Z,1012.66
2019-03-26T13:29:45.885Z,1012.63
2019-03-26T13:30:45.871Z,1012.66
2019-03-26T13:31:45.849Z,1012.70
2019-03-26T13:32:45.894Z,1012.62
2019-03-26T13:33:45.853Z,1012.67
2019-03-26T13:34:45.823Z,1012.69
2019-03-26T13:35:45.842Z,1012.72
2019-03-26T13:36:45.804Z,1012.68
2019-03-26T13:37:45.789Z,1012.67
2019-03-26T13:38:45.814Z,1012.69
2019-03-26T13:39:45.777Z,1012.67
2019-03-26T13:40:45.774Z,1012.71
2019-03-26T13:41:45.744Z,1012.68
2019-03-26T13:42:45.726Z,1012.63
2019-03-26T13:43:45.736Z,1012.74
2019-03-26T13:44:45.711Z,1012.67
2019-03-26T13:45:45.716Z,1012.72
2019-03-26T13:46:45.698Z,1012.78
2019-03-26T13:47:45.677Z,1012.76
2019-03-26T13:48:45.691Z,1012.74
2019-03-26T13:49:45.655Z,1012.70
2019-03-26T13:50:45.659Z,1012.77
2019-03-26T13:51:45.629Z,1012.74
2019-03-26T13:52:45.619Z,1012.73
2019-03-26T13:53:45.608Z,1012.78
2019-03-26T13:54:45.625Z,1012.77
2019-03-26T13:55:45.606Z,1012.75
2019-03-26T13:56:45.578Z,1012.81
2019-03-26T13:57:45.580Z,1012.84
2019-03-26T13:58:45.559Z,1012.80
2019-03-26T13:59:48.816Z,1012.79
2019-03-26T14:00:45.563Z,1012.85
2019-03-26T14:01:45.536Z,1012.85
2019-03-26T14:02:45.514Z,1012.87
2019-03-26T14:03:45.501Z,1012.86
2019-03-26T14:04:45.493Z,1012.91
2019-03-26T14:05:45.498Z,1012.84
2019-03-26T14:06:45.475Z,1012.88
2019-03-26T14:07:45.467Z,1012.88
2019-03-26T14:08:45.466Z,1012.86
2019-03-26T14:09:45.476Z,1012.86
2019-03-26T14:10:45.436Z,1012.88
2019-03-26T14:11:45.419Z,1012.78
2019-03-26T14:12:45.405Z,1012.91
2019-03-26T14:13:45.420Z,1012.82
2019-03-26T14:14:45.416Z,1012.85
2019-03-26T14:15:45.371Z,1012.79
2019-03-26T14:16:45.360Z,1012.80
2019-03-26T14:17:45.362Z,1012.79
2019-03-26T14:18:45.349Z,1012.78
2019-03-26T14:19:45.349Z,1012.74
2019-03-26T14:20:45.317Z,1012.75
2019-03-26T14:21:45.312Z,1012.80
2019-03-26T14:22:45.332Z,1012.75
2019-03-26T14:23:45.282Z,1012.74
2019-03-26T14:24:45.274Z,1012.77
2019-03-26T14:25:45.260Z,1012.71
2019-03-26T14:26:45.271Z,1012.71
2019-03-26T14:27:45.254Z,1012.75
2019-03-26T14:28:45.283Z,1012.72
2019-03-26T14:29:45.219Z,1012.71
2019-03-26T14:30:45.213Z,1012.66
2019-03-26T14:31:45.197Z,1012.76
2019-03-26T14:32:45.205Z,1012.75
2019-03-26T14:33:45.179Z,1012.69
2019-03-26T14:34:48.235Z,1012.66
2019-03-26T14:35:46.158Z,1012.71
2019-03-26T14:36:45.175Z,1012.77
2019-03-26T14:37:51.046Z,1012.72
2019-03-26T14:38:46.146Z,1012.68
2019-03-26T14:39:45.109Z,1012.69
2019-03-26T14:40:54.659Z,1012.64
2019-03-26T14:41:46.088Z,1012.64
2019-03-26T14:42:45.084Z,1012.67
2019-03-26T14:43:45.066Z,1012.70
2019-03-26T14:44:45.095Z,1012.65
2019-03-26T14:45:45.056Z,1012.71
2019-03-26T14:46:45.032Z,1012.70
2019-03-26T14:47:45.054Z,1012.69
2019-03-26T14:48:45.015Z,1012.71
2019-03-26T14:49:45.029Z,1012.75
2019-03-26T14:50:45.000Z,1012.67
2019-03-26T14:51:44.981Z,1012.70
2019-03-26T14:52:44.970Z,1012.62
2019-03-26T14:53:44.977Z,1012.62
2019-03-26T14:54:44.951Z,1012.68
2019-03-26T14:55:44.955Z,1012.67
2019-03-26T14:56:44.926Z,1012.61
2019-03-26T14:57:44.930Z,1012.62
2019-03-26T14:58:44.907Z,1012.58
2019-03-26T14:59:44.917Z,1012.64
2019-03-26T15:00:44.892Z,1012.64
2019-03-26T15:01:44.873Z,1012.62
2019-03-26T15:02:44.863Z,1012.68
2019-03-26T15:03:44.865Z,1012.69
2019-03-26T15:04:44.855Z,1012.62
2019-03-26T15:05:44.853Z,1012.69
2019-03-26T15:06:44.814Z,1012.67
2019-03-26T15:07:44.809Z,1012.63
2019-03-26T15:08:44.798Z,1012.74
2019-03-26T15:09:44.787Z,1012.67
2019-03-26T15:10:44.834Z,1012.69
2019-03-26T15:11:44.772Z,1012.64
2019-03-26T15:12:44.756Z,1012.65
2019-03-26T15:13:44.743Z,1012.66
2019-03-26T15:14:44.742Z,1012.65
2019-03-26T15:15:44.742Z,1012.65
2019-03-26T15:16:44.709Z,1012.62
2019-03-26T15:17:44.705Z,1012.63
2019-03-26T15:18:44.742Z,1012.66
2019-03-26T15:19:44.677Z,1012.70
2019-03-26T15:20:44.667Z,1012.72
2019-03-26T15:21:44.694Z,1012.81
2019-03-26T15:22:44.646Z,1012.88
2019-03-26T15:23:44.679Z,1012.76
2019-03-26T15:24:44.622Z,1012.73
2019-03-26T15:25:44.639Z,1012.67
2019-03-26T15:26:44.598Z,1012.69
2019-03-26T15:27:44.611Z,1012.69
2019-03-26T15:28:44.576Z,1012.67
2019-03-26T15:29:44.603Z,1012.61
2019-03-26T15:30:44.562Z,1012.67
2019-03-26T15:31:44.550Z,1012.65
2019-03-26T15:32:44.600Z,1012.70
2019-03-26T15:33:44.520Z,1012.61
2019-03-26T15:34:44.518Z,1012.68
2019-03-26T15:35:44.508Z,1012.70
2019-03-26T15:36:44.517Z,1012.69
2019-03-26T15:37:44.499Z,1012.70
2019-03-26T15:38:44.491Z,1012.66
2019-03-26T15:39:44.458Z,1012.65
2019-03-26T15:40:44.451Z,1012.61
2019-03-26T15:41:44.462Z,1012.60
2019-03-26T15:42:44.453Z,1012.64
2019-03-26T15:43:44.419Z,1012.61
2019-03-26T15:44:44.412Z,1012.59
2019-03-26T15:45:44.397Z,1012.64
2019-03-26T15:46:44.443Z,1012.64
2019-03-26T15:47:44.401Z,1012.60
2019-03-26T15:48:44.378Z,1012.63
2019-03-26T15:49:44.444Z,1012.60
2019-03-26T15:50:44.346Z,1012.60
2019-03-26T15:51:44.329Z,1012.60
2019-03-26T15:52:44.317Z,1012.55
2019-03-26T15:53:44.325Z,1012.59
2019-03-26T15:54:44.336Z,1012.57
2019-03-26T15:55:44.293Z,1012.60
2019-03-26T15:56:44.305Z,1012.60
2019-03-26T15:57:44.272Z,1012.57
2019-03-26T15:58:51.303Z,1012.57
2019-03-26T15:59:51.282Z,1012.62
2019-03-26T16:00:44.233Z,1012.53
2019-03-26T16:01:51.752Z,1012.58
2019-03-26T16:02:51.312Z,1012.58
2019-03-26T16:03:51.740Z,1012.55
2019-03-26T16:04:44.195Z,1012.54
2019-03-26T16:16:03.967Z,1012.48
2019-03-26T16:22:08.577Z,1012.56
2019-03-26T16:23:30.275Z,1012.55
2019-03-26T16:24:22.730Z,1012.55
2019-03-26T16:37:01.633Z,1012.45
2019-03-26T16:51:53.618Z,1012.50
2019-03-26T16:53:19.220Z,1012.57
2019-03-26T17:06:26.210Z,1012.78
2019-03-26T17:13:11.887Z,1012.81
2019-03-26T17:15:28.175Z,1012.78
2019-03-26T17:18:13.249Z,1012.75
2019-03-26T17:36:41.675Z,1012.71
2019-03-26T17:38:59.574Z,1012.71
2019-03-26T17:43:01.403Z,1012.83
2019-03-26T17:49:24.288Z,1012.80
2019-03-26T17:50:24.459Z,1012.83
2019-03-26T17:52:42.925Z,1012.75
2019-03-26T17:59:12.856Z,1012.78
2019-03-26T18:00:12.530Z,1012.73
2019-03-26T18:07:08.991Z,1012.74
2019-03-26T18:18:18.722Z,1012.85
2019-03-26T18:20:32.545Z,1012.94
2019-03-26T18:21:27.039Z,1012.94
2019-03-26T18:22:26.111Z,1012.95
2019-03-26T18:27:06.827Z,1012.96
2019-03-26T18:32:26.455Z,1013.09
2019-03-26T18:36:11.204Z,1013.12
2019-03-26T18:50:41.905Z,1013.17
2019-03-26T18:52:47.280Z,1013.15
2019-03-26T18:53:38.827Z,1013.15
2019-03-26T19:01:01.162Z,1013.10
2019-03-26T19:02:04.655Z,1013.13
2019-03-26T19:04:38.347Z,1013.22
2019-03-26T19:15:27.510Z,1013.20
2019-03-26T19:16:49.502Z,1013.20
2019-03-26T19:22:48.876Z,1013.21
2019-03-26T19:25:27.019Z,1013.27
2019-03-26T19:29:36.094Z,1013.26
2019-03-26T19:37:48.701Z,1013.35
2019-03-26T19:38:48.646Z,1013.29
2019-03-26T19:40:58.585Z,1013.36
2019-03-26T19:44:05.600Z,1013.42
2019-03-26T19:48:42.500Z,1013.49
2019-03-26T19:54:48.380Z,1013.51
2019-03-26T19:55:45.355Z,1013.55
2019-03-26T19:56:45.296Z,1013.54
2019-03-26T19:57:45.311Z,1013.56
2019-03-26T20:01:51.593Z,1013.64
2019-03-26T20:04:12.419Z,1013.66
2019-03-26T20:10:10.846Z,1013.73
2019-03-26T20:11:08.230Z,1013.74
2019-03-26T20:12:08.257Z,1013.66
2019-03-26T20:14:54.073Z,1013.73
2019-03-26T20:18:13.524Z,1013.67
2019-03-26T20:23:46.508Z,1013.76
2019-03-26T20:24:40.343Z,1013.80
2019-03-26T20:28:05.444Z,1013.79
2019-03-26T20:29:06.165Z,1013.83
2019-03-26T20:30:05.739Z,1013.79
2019-03-26T20:31:05.225Z,1013.82
2019-03-26T21:07:37.106Z,1013.83
2019-03-26T21:08:37.053Z,1013.75
2019-03-26T21:35:38.704Z,1013.97
2019-03-26T21:36:38.662Z,1013.95
2019-03-26T22:11:49.609Z,1013.99
2019-03-26T22:30:56.344Z,1014.08
2019-03-26T22:31:56.207Z,1014.06
2019-03-26T22:32:56.212Z,1014.03
2019-03-26T22:33:56.204Z,1014.03
2019-03-26T22:34:56.187Z,1014.08
2019-03-26T22:35:56.287Z,1014.06
2019-03-26T22:36:56.151Z,1014.05
2019-03-26T22:37:56.143Z,1014.00
2019-03-26T22:38:56.147Z,1014.00
2019-03-26T22:39:56.120Z,1014.10